sensor_id;sensor_type;location;lat;lon;timestamp;P1;durP1;ratioP1;P2;durP2;ratioP2
41759;SDS011;27438;53.396;-6.670;2022-08-19T00:00:03;13.60;;;2.88;;
41759;SDS011;27438;53.396;-6.670;2022-08-19T00:02:32;12.50;;;3.13;;
41759;SDS011;27438;53.396;-6.670;2022-08-19T00:04:58;18.40;;;3.33;;
41759;SDS011;27438;53.396;-6.670;2022-08-19T00:07:23;11.93;;;3.33;;
41759;SDS011;27438;53.396;-6.670;2022-08-19T00:09:49;16.95;;;3.00;;
41759;SDS011;27438;53.396;-6.670;2022-08-19T00:12:15;18.23;;;3.13;;
41759;SDS011;27438;53.396;-6.670;2022-08-19T00:14:41;12.10;;;3.15;;
41759;SDS011;27438;53.396;-6.670;2022-08-19T00:17:07;17.10;;;3.20;;
41759;SDS011;27438;53.396;-6.670;2022-08-19T00:19:33;21.85;;;4.57;;
41759;SDS011;27438;53.396;-6.670;2022-08-19T00:22:01;12.77;;;2.92;;
41759;SDS011;27438;53.396;-6.670;2022-08-19T00:24:27;13.70;;;2.63;;
41759;SDS011;27438;53.396;-6.670;2022-08-19T00:26:54;22.58;;;3.20;;
41759;SDS011;27438;53.396;-6.670;2022-08-19T00:29:21;15.90;;;3.65;;
41759;SDS011;27438;53.396;-6.670;2022-08-19T00:31:48;14.95;;;3.22;;
41759;SDS011;27438;53.396;-6.670;2022-08-19T00:34:20;15.13;;;3.20;;
41759;SDS011;27438;53.396;-6.670;2022-08-19T00:36:46;20.50;;;3.80;;
41759;SDS011;27438;53.396;-6.670;2022-08-19T00:39:14;20.58;;;4.13;;
41759;SDS011;27438;53.396;-6.670;2022-08-19T00:41:42;17.13;;;4.35;;
41759;SDS011;27438;53.396;-6.670;2022-08-19T00:44:13;16.92;;;3.58;;
41759;SDS011;27438;53.396;-6.670;2022-08-19T00:46:42;15.18;;;2.97;;
41759;SDS011;27438;53.396;-6.670;2022-08-19T00:49:12;16.17;;;3.08;;
41759;SDS011;27438;53.396;-6.670;2022-08-19T00:51:42;17.65;;;4.05;;
41759;SDS011;27438;53.396;-6.670;2022-08-19T00:54:10;21.45;;;4.40;;
41759;SDS011;27438;53.396;-6.670;2022-08-19T00:56:36;32.47;;;5.78;;
41759;SDS011;27438;53.396;-6.670;2022-08-19T00:59:02;16.35;;;3.22;;
41759;SDS011;27438;53.396;-6.670;2022-08-19T01:01:33;21.08;;;3.75;;
41759;SDS011;27438;53.396;-6.670;2022-08-19T01:04:03;18.63;;;4.00;;
41759;SDS011;27438;53.396;-6.670;2022-08-19T01:06:30;21.50;;;4.10;;
41759;SDS011;27438;53.396;-6.670;2022-08-19T01:08:58;19.63;;;3.17;;
41759;SDS011;27438;53.396;-6.670;2022-08-19T01:11:25;18.73;;;4.30;;
41759;SDS011;27438;53.396;-6.670;2022-08-19T01:13:55;13.35;;;2.92;;
41759;SDS011;27438;53.396;-6.670;2022-08-19T01:16:21;17.25;;;3.40;;
41759;SDS011;27438;53.396;-6.670;2022-08-19T01:18:50;16.08;;;3.28;;
41759;SDS011;27438;53.396;-6.670;2022-08-19T01:21:31;19.25;;;3.88;;
41759;SDS011;27438;53.396;-6.670;2022-08-19T01:24:03;16.20;;;3.42;;
41759;SDS011;27438;53.396;-6.670;2022-08-19T01:26:29;18.13;;;4.43;;
41759;SDS011;27438;53.396;-6.670;2022-08-19T01:28:55;20.88;;;4.90;;
41759;SDS011;27438;53.396;-6.670;2022-08-19T01:31:23;17.95;;;3.85;;
41759;SDS011;27438;53.396;-6.670;2022-08-19T01:33:52;23.48;;;4.13;;
41759;SDS011;27438;53.396;-6.670;2022-08-19T01:39:15;16.58;;;3.33;;
41759;SDS011;27438;53.396;-6.670;2022-08-19T01:41:44;29.30;;;5.57;;
41759;SDS011;27438;53.396;-6.670;2022-08-19T01:44:10;20.73;;;3.78;;
41759;SDS011;27438;53.396;-6.670;2022-08-19T01:46:36;13.27;;;3.05;;
41759;SDS011;27438;53.396;-6.670;2022-08-19T01:49:03;21.80;;;5.00;;
41759;SDS011;27438;53.396;-6.670;2022-08-19T01:51:30;23.27;;;4.30;;
41759;SDS011;27438;53.396;-6.670;2022-08-19T01:53:56;19.75;;;4.50;;
41759;SDS011;27438;53.396;-6.670;2022-08-19T01:56:22;18.27;;;3.30;;
41759;SDS011;27438;53.396;-6.670;2022-08-19T01:58:49;22.55;;;5.20;;
41759;SDS011;27438;53.396;-6.670;2022-08-19T02:01:19;16.02;;;3.60;;
41759;SDS011;27438;53.396;-6.670;2022-08-19T02:03:45;29.33;;;4.38;;
41759;SDS011;27438;53.396;-6.670;2022-08-19T02:06:11;20.17;;;3.53;;
41759;SDS011;27438;53.396;-6.670;2022-08-19T02:08:38;24.67;;;5.30;;
41759;SDS011;27438;53.396;-6.670;2022-08-19T02:11:05;21.70;;;3.50;;
41759;SDS011;27438;53.396;-6.670;2022-08-19T02:13:32;16.52;;;4.07;;
41759;SDS011;27438;53.396;-6.670;2022-08-19T02:15:59;24.38;;;5.13;;
41759;SDS011;27438;53.396;-6.670;2022-08-19T02:18:25;21.67;;;4.28;;
41759;SDS011;27438;53.396;-6.670;2022-08-19T02:20:51;23.67;;;4.30;;
41759;SDS011;27438;53.396;-6.670;2022-08-19T02:23:17;21.92;;;3.63;;
41759;SDS011;27438;53.396;-6.670;2022-08-19T02:25:44;20.15;;;3.45;;
41759;SDS011;27438;53.396;-6.670;2022-08-19T02:28:12;24.10;;;4.57;;
41759;SDS011;27438;53.396;-6.670;2022-08-19T02:30:38;19.17;;;3.90;;
41759;SDS011;27438;53.396;-6.670;2022-08-19T02:33:06;20.60;;;4.32;;
41759;SDS011;27438;53.396;-6.670;2022-08-19T02:35:32;15.32;;;3.42;;
41759;SDS011;27438;53.396;-6.670;2022-08-19T02:37:58;20.17;;;3.03;;
41759;SDS011;27438;53.396;-6.670;2022-08-19T02:40:47;21.80;;;4.28;;
41759;SDS011;27438;53.396;-6.670;2022-08-19T02:43:16;20.45;;;4.35;;
41759;SDS011;27438;53.396;-6.670;2022-08-19T02:45:42;17.02;;;4.65;;
41759;SDS011;27438;53.396;-6.670;2022-08-19T02:48:08;23.75;;;4.20;;
41759;SDS011;27438;53.396;-6.670;2022-08-19T02:50:37;30.23;;;5.55;;
41759;SDS011;27438;53.396;-6.670;2022-08-19T02:53:03;25.20;;;4.68;;
41759;SDS011;27438;53.396;-6.670;2022-08-19T02:55:29;19.33;;;3.60;;
41759;SDS011;27438;53.396;-6.670;2022-08-19T02:57:55;27.17;;;5.40;;
41759;SDS011;27438;53.396;-6.670;2022-08-19T03:00:22;24.50;;;3.92;;
41759;SDS011;27438;53.396;-6.670;2022-08-19T03:02:49;16.55;;;3.33;;
41759;SDS011;27438;53.396;-6.670;2022-08-19T03:05:15;21.52;;;4.65;;
41759;SDS011;27438;53.396;-6.670;2022-08-19T03:07:41;24.13;;;5.20;;
41759;SDS011;27438;53.396;-6.670;2022-08-19T03:10:07;21.92;;;3.20;;
41759;SDS011;27438;53.396;-6.670;2022-08-19T03:12:35;23.23;;;3.78;;
41759;SDS011;27438;53.396;-6.670;2022-08-19T03:15:03;17.92;;;4.60;;
41759;SDS011;27438;53.396;-6.670;2022-08-19T03:17:30;16.60;;;3.42;;
41759;SDS011;27438;53.396;-6.670;2022-08-19T03:19:56;21.05;;;4.55;;
41759;SDS011;27438;53.396;-6.670;2022-08-19T03:22:21;20.88;;;4.38;;
41759;SDS011;27438;53.396;-6.670;2022-08-19T03:24:47;14.98;;;3.17;;
41759;SDS011;27438;53.396;-6.670;2022-08-19T03:27:13;18.23;;;4.45;;
41759;SDS011;27438;53.396;-6.670;2022-08-19T03:29:39;16.85;;;3.80;;
41759;SDS011;27438;53.396;-6.670;2022-08-19T03:32:05;16.13;;;3.55;;
41759;SDS011;27438;53.396;-6.670;2022-08-19T03:34:31;19.73;;;3.38;;
41759;SDS011;27438;53.396;-6.670;2022-08-19T03:37:07;19.83;;;4.15;;
41759;SDS011;27438;53.396;-6.670;2022-08-19T03:39:35;14.75;;;3.33;;
41759;SDS011;27438;53.396;-6.670;2022-08-19T03:42:02;21.60;;;4.18;;
41759;SDS011;27438;53.396;-6.670;2022-08-19T03:44:29;21.10;;;3.70;;
41759;SDS011;27438;53.396;-6.670;2022-08-19T03:46:57;18.80;;;3.97;;
41759;SDS011;27438;53.396;-6.670;2022-08-19T03:49:25;17.88;;;3.45;;
41759;SDS011;27438;53.396;-6.670;2022-08-19T03:51:54;21.60;;;3.67;;
41759;SDS011;27438;53.396;-6.670;2022-08-19T03:54:22;15.95;;;3.03;;
41759;SDS011;27438;53.396;-6.670;2022-08-19T03:56:51;23.10;;;4.15;;
41759;SDS011;27438;53.396;-6.670;2022-08-19T03:59:20;16.42;;;3.40;;
41759;SDS011;27438;53.396;-6.670;2022-08-19T04:01:50;20.40;;;3.85;;
41759;SDS011;27438;53.396;-6.670;2022-08-19T04:04:17;19.70;;;4.65;;
41759;SDS011;27438;53.396;-6.670;2022-08-19T04:06:43;20.48;;;3.35;;
41759;SDS011;27438;53.396;-6.670;2022-08-19T04:09:12;13.40;;;3.28;;
41759;SDS011;27438;53.396;-6.670;2022-08-19T04:11:57;20.88;;;3.85;;
41759;SDS011;27438;53.396;-6.670;2022-08-19T04:14:26;19.83;;;3.50;;
41759;SDS011;27438;53.396;-6.670;2022-08-19T04:16:57;14.20;;;2.90;;
41759;SDS011;27438;53.396;-6.670;2022-08-19T04:19:25;16.70;;;3.10;;
41759;SDS011;27438;53.396;-6.670;2022-08-19T04:21:52;26.20;;;3.35;;
41759;SDS011;27438;53.396;-6.670;2022-08-19T04:24:19;17.17;;;3.05;;
41759;SDS011;27438;53.396;-6.670;2022-08-19T04:26:46;15.88;;;3.05;;
41759;SDS011;27438;53.396;-6.670;2022-08-19T04:29:14;18.50;;;3.92;;
41759;SDS011;27438;53.396;-6.670;2022-08-19T04:31:47;20.50;;;5.82;;
41759;SDS011;27438;53.396;-6.670;2022-08-19T04:34:14;13.48;;;2.90;;
41759;SDS011;27438;53.396;-6.670;2022-08-19T04:36:42;12.18;;;3.25;;
41759;SDS011;27438;53.396;-6.670;2022-08-19T04:39:10;15.35;;;3.08;;
41759;SDS011;27438;53.396;-6.670;2022-08-19T04:41:39;16.48;;;2.65;;
41759;SDS011;27438;53.396;-6.670;2022-08-19T04:44:23;18.67;;;4.70;;
41759;SDS011;27438;53.396;-6.670;2022-08-19T04:46:49;18.42;;;2.15;;
41759;SDS011;27438;53.396;-6.670;2022-08-19T04:49:17;12.93;;;2.35;;
41759;SDS011;27438;53.396;-6.670;2022-08-19T04:51:44;17.83;;;3.30;;
41759;SDS011;27438;53.396;-6.670;2022-08-19T04:54:12;19.67;;;3.30;;
41759;SDS011;27438;53.396;-6.670;2022-08-19T04:56:40;16.48;;;3.38;;
41759;SDS011;27438;53.396;-6.670;2022-08-19T04:59:06;12.25;;;2.88;;
41759;SDS011;27438;53.396;-6.670;2022-08-19T05:01:33;18.48;;;4.05;;
41759;SDS011;27438;53.396;-6.670;2022-08-19T05:04:02;20.02;;;3.45;;
41759;SDS011;27438;53.396;-6.670;2022-08-19T05:06:30;15.20;;;3.28;;
41759;SDS011;27438;53.396;-6.670;2022-08-19T05:08:58;10.43;;;2.65;;
41759;SDS011;27438;53.396;-6.670;2022-08-19T05:11:25;12.73;;;2.05;;
41759;SDS011;27438;53.396;-6.670;2022-08-19T05:13:56;12.93;;;3.28;;
41759;SDS011;27438;53.396;-6.670;2022-08-19T05:16:23;18.90;;;3.17;;
41759;SDS011;27438;53.396;-6.670;2022-08-19T05:18:50;12.63;;;2.53;;
41759;SDS011;27438;53.396;-6.670;2022-08-19T05:21:35;12.80;;;2.08;;
41759;SDS011;27438;53.396;-6.670;2022-08-19T05:24:21;15.43;;;3.30;;
41759;SDS011;27438;53.396;-6.670;2022-08-19T05:26:49;18.00;;;4.15;;
41759;SDS011;27438;53.396;-6.670;2022-08-19T05:29:17;14.55;;;2.17;;
41759;SDS011;27438;53.396;-6.670;2022-08-19T05:31:45;12.88;;;3.13;;
41759;SDS011;27438;53.396;-6.670;2022-08-19T05:34:12;12.27;;;2.55;;
41759;SDS011;27438;53.396;-6.670;2022-08-19T05:36:39;13.38;;;2.13;;
41759;SDS011;27438;53.396;-6.670;2022-08-19T05:39:09;15.68;;;3.28;;
41759;SDS011;27438;53.396;-6.670;2022-08-19T05:41:41;11.65;;;2.22;;
41759;SDS011;27438;53.396;-6.670;2022-08-19T05:44:08;10.50;;;2.78;;
41759;SDS011;27438;53.396;-6.670;2022-08-19T05:46:35;12.60;;;2.53;;
41759;SDS011;27438;53.396;-6.670;2022-08-19T05:49:03;10.27;;;2.88;;
41759;SDS011;27438;53.396;-6.670;2022-08-19T05:51:33;17.20;;;2.78;;
41759;SDS011;27438;53.396;-6.670;2022-08-19T05:54:03;14.63;;;2.80;;
41759;SDS011;27438;53.396;-6.670;2022-08-19T05:56:32;11.93;;;2.50;;
41759;SDS011;27438;53.396;-6.670;2022-08-19T05:59:01;14.95;;;2.70;;
41759;SDS011;27438;53.396;-6.670;2022-08-19T06:01:28;10.38;;;2.53;;
41759;SDS011;27438;53.396;-6.670;2022-08-19T06:03:54;9.10;;;1.98;;
41759;SDS011;27438;53.396;-6.670;2022-08-19T06:06:20;15.18;;;2.80;;
41759;SDS011;27438;53.396;-6.670;2022-08-19T06:08:46;9.27;;;2.00;;
41759;SDS011;27438;53.396;-6.670;2022-08-19T06:11:20;15.18;;;2.60;;
41759;SDS011;27438;53.396;-6.670;2022-08-19T06:13:57;8.60;;;2.28;;
41759;SDS011;27438;53.396;-6.670;2022-08-19T06:16:25;8.13;;;2.15;;
41759;SDS011;27438;53.396;-6.670;2022-08-19T06:18:52;16.90;;;3.08;;
41759;SDS011;27438;53.396;-6.670;2022-08-19T06:21:23;7.28;;;1.48;;
41759;SDS011;27438;53.396;-6.670;2022-08-19T06:23:52;12.75;;;1.92;;
41759;SDS011;27438;53.396;-6.670;2022-08-19T06:26:19;10.38;;;2.55;;
41759;SDS011;27438;53.396;-6.670;2022-08-19T06:28:45;6.15;;;1.63;;
41759;SDS011;27438;53.396;-6.670;2022-08-19T06:31:15;7.78;;;1.60;;
41759;SDS011;27438;53.396;-6.670;2022-08-19T06:33:44;12.40;;;2.28;;
41759;SDS011;27438;53.396;-6.670;2022-08-19T06:36:20;9.70;;;1.85;;
41759;SDS011;27438;53.396;-6.670;2022-08-19T06:38:52;6.32;;;1.50;;
41759;SDS011;27438;53.396;-6.670;2022-08-19T06:41:18;12.23;;;2.25;;
41759;SDS011;27438;53.396;-6.670;2022-08-19T06:43:44;8.80;;;1.40;;
41759;SDS011;27438;53.396;-6.670;2022-08-19T06:46:10;6.38;;;1.20;;
41759;SDS011;27438;53.396;-6.670;2022-08-19T06:48:38;11.45;;;2.33;;
41759;SDS011;27438;53.396;-6.670;2022-08-19T06:51:03;9.65;;;1.90;;
41759;SDS011;27438;53.396;-6.670;2022-08-19T06:53:31;7.97;;;1.60;;
41759;SDS011;27438;53.396;-6.670;2022-08-19T06:55:57;11.23;;;1.88;;
41759;SDS011;27438;53.396;-6.670;2022-08-19T06:58:27;8.10;;;1.80;;
41759;SDS011;27438;53.396;-6.670;2022-08-19T07:00:59;10.10;;;2.10;;
41759;SDS011;27438;53.396;-6.670;2022-08-19T07:03:30;6.28;;;1.90;;
41759;SDS011;27438;53.396;-6.670;2022-08-19T07:06:02;8.48;;;1.10;;
41759;SDS011;27438;53.396;-6.670;2022-08-19T07:08:33;9.15;;;1.77;;
41759;SDS011;27438;53.396;-6.670;2022-08-19T07:11:01;8.45;;;1.48;;
41759;SDS011;27438;53.396;-6.670;2022-08-19T07:13:31;10.15;;;2.15;;
41759;SDS011;27438;53.396;-6.670;2022-08-19T07:16:05;8.88;;;1.70;;
41759;SDS011;27438;53.396;-6.670;2022-08-19T07:18:36;6.03;;;1.65;;
41759;SDS011;27438;53.396;-6.670;2022-08-19T07:21:06;9.82;;;2.15;;
41759;SDS011;27438;53.396;-6.670;2022-08-19T07:23:59;3.58;;;1.80;;
41759;SDS011;27438;53.396;-6.670;2022-08-19T07:26:29;7.07;;;1.40;;
41759;SDS011;27438;53.396;-6.670;2022-08-19T07:28:57;5.07;;;1.40;;
41759;SDS011;27438;53.396;-6.670;2022-08-19T07:31:25;8.50;;;1.30;;
41759;SDS011;27438;53.396;-6.670;2022-08-19T07:33:52;7.45;;;1.90;;
41759;SDS011;27438;53.396;-6.670;2022-08-19T07:36:22;6.60;;;1.60;;
41759;SDS011;27438;53.396;-6.670;2022-08-19T07:38:50;7.55;;;1.92;;
41759;SDS011;27438;53.396;-6.670;2022-08-19T07:41:20;9.90;;;1.40;;
41759;SDS011;27438;53.396;-6.670;2022-08-19T07:43:47;9.90;;;2.17;;
41759;SDS011;27438;53.396;-6.670;2022-08-19T07:46:14;8.00;;;1.08;;
41759;SDS011;27438;53.396;-6.670;2022-08-19T07:48:42;6.50;;;1.10;;
41759;SDS011;27438;53.396;-6.670;2022-08-19T07:51:13;8.82;;;2.00;;
41759;SDS011;27438;53.396;-6.670;2022-08-19T07:53:41;8.45;;;1.27;;
41759;SDS011;27438;53.396;-6.670;2022-08-19T07:56:10;7.00;;;1.92;;
41759;SDS011;27438;53.396;-6.670;2022-08-19T07:58:39;5.72;;;1.75;;
41759;SDS011;27438;53.396;-6.670;2022-08-19T08:01:07;6.10;;;1.40;;
41759;SDS011;27438;53.396;-6.670;2022-08-19T08:03:35;6.53;;;1.88;;
41759;SDS011;27438;53.396;-6.670;2022-08-19T08:06:20;5.35;;;1.23;;
41759;SDS011;27438;53.396;-6.670;2022-08-19T08:09:06;6.68;;;1.13;;
41759;SDS011;27438;53.396;-6.670;2022-08-19T08:11:36;6.55;;;1.50;;
41759;SDS011;27438;53.396;-6.670;2022-08-19T08:14:07;3.92;;;1.27;;
41759;SDS011;27438;53.396;-6.670;2022-08-19T08:16:34;6.25;;;1.60;;
41759;SDS011;27438;53.396;-6.670;2022-08-19T08:19:03;6.53;;;2.88;;
41759;SDS011;27438;53.396;-6.670;2022-08-19T08:21:31;10.35;;;1.13;;
41759;SDS011;27438;53.396;-6.670;2022-08-19T08:23:57;5.40;;;1.85;;
41759;SDS011;27438;53.396;-6.670;2022-08-19T08:26:23;7.65;;;1.58;;
41759;SDS011;27438;53.396;-6.670;2022-08-19T08:28:50;8.82;;;1.27;;
41759;SDS011;27438;53.396;-6.670;2022-08-19T08:31:16;7.68;;;1.45;;
41759;SDS011;27438;53.396;-6.670;2022-08-19T08:33:44;9.27;;;3.10;;
41759;SDS011;27438;53.396;-6.670;2022-08-19T08:36:10;8.23;;;1.67;;
41759;SDS011;27438;53.396;-6.670;2022-08-19T08:38:38;5.85;;;1.45;;
41759;SDS011;27438;53.396;-6.670;2022-08-19T08:43:51;5.65;;;1.33;;
41759;SDS011;27438;53.396;-6.670;2022-08-19T08:46:22;7.13;;;1.20;;
41759;SDS011;27438;53.396;-6.670;2022-08-19T08:51:44;2.88;;;1.27;;
41759;SDS011;27438;53.396;-6.670;2022-08-19T08:54:14;3.30;;;0.90;;
41759;SDS011;27438;53.396;-6.670;2022-08-19T08:56:43;5.00;;;1.15;;
41759;SDS011;27438;53.396;-6.670;2022-08-19T08:59:12;10.05;;;1.55;;
41759;SDS011;27438;53.396;-6.670;2022-08-19T09:01:45;6.63;;;0.80;;
41759;SDS011;27438;53.396;-6.670;2022-08-19T09:04:11;2.85;;;0.60;;
41759;SDS011;27438;53.396;-6.670;2022-08-19T09:06:50;3.53;;;0.80;;
41759;SDS011;27438;53.396;-6.670;2022-08-19T09:09:18;7.43;;;1.08;;
41759;SDS011;27438;53.396;-6.670;2022-08-19T09:17:33;2.85;;;0.70;;
41759;SDS011;27438;53.396;-6.670;2022-08-19T09:22:34;3.80;;;1.20;;
41759;SDS011;27438;53.396;-6.670;2022-08-19T09:25:01;3.10;;;1.10;;
41759;SDS011;27438;53.396;-6.670;2022-08-19T09:27:27;4.97;;;1.00;;
41759;SDS011;27438;53.396;-6.670;2022-08-19T09:29:54;5.18;;;1.05;;
41759;SDS011;27438;53.396;-6.670;2022-08-19T09:32:20;3.83;;;1.15;;
41759;SDS011;27438;53.396;-6.670;2022-08-19T09:34:47;6.18;;;1.17;;
41759;SDS011;27438;53.396;-6.670;2022-08-19T09:37:13;3.92;;;1.25;;
41759;SDS011;27438;53.396;-6.670;2022-08-19T09:39:39;5.28;;;1.10;;
41759;SDS011;27438;53.396;-6.670;2022-08-19T09:42:06;7.25;;;1.13;;
41759;SDS011;27438;53.396;-6.670;2022-08-19T09:44:37;5.15;;;1.02;;
41759;SDS011;27438;53.396;-6.670;2022-08-19T09:47:04;7.75;;;1.60;;
41759;SDS011;27438;53.396;-6.670;2022-08-19T09:49:30;4.18;;;1.08;;
41759;SDS011;27438;53.396;-6.670;2022-08-19T09:51:56;3.78;;;1.20;;
41759;SDS011;27438;53.396;-6.670;2022-08-19T09:54:22;5.88;;;1.35;;
41759;SDS011;27438;53.396;-6.670;2022-08-19T09:56:48;8.02;;;1.70;;
41759;SDS011;27438;53.396;-6.670;2022-08-19T09:59:14;6.13;;;1.38;;
41759;SDS011;27438;53.396;-6.670;2022-08-19T10:01:41;7.88;;;1.73;;
41759;SDS011;27438;53.396;-6.670;2022-08-19T10:04:07;7.32;;;1.38;;
41759;SDS011;27438;53.396;-6.670;2022-08-19T10:06:37;6.05;;;1.20;;
41759;SDS011;27438;53.396;-6.670;2022-08-19T10:09:05;6.05;;;1.33;;
41759;SDS011;27438;53.396;-6.670;2022-08-19T10:11:35;3.45;;;1.50;;
41759;SDS011;27438;53.396;-6.670;2022-08-19T10:14:02;6.43;;;1.00;;
41759;SDS011;27438;53.396;-6.670;2022-08-19T10:16:30;5.13;;;1.02;;
41759;SDS011;27438;53.396;-6.670;2022-08-19T10:18:57;5.55;;;1.00;;
41759;SDS011;27438;53.396;-6.670;2022-08-19T10:21:25;6.28;;;1.02;;
41759;SDS011;27438;53.396;-6.670;2022-08-19T10:23:57;4.90;;;0.90;;
41759;SDS011;27438;53.396;-6.670;2022-08-19T10:26:29;2.17;;;0.90;;
41759;SDS011;27438;53.396;-6.670;2022-08-19T10:28:57;5.88;;;1.00;;
41759;SDS011;27438;53.396;-6.670;2022-08-19T10:31:25;5.75;;;1.30;;
41759;SDS011;27438;53.396;-6.670;2022-08-19T10:33:53;4.65;;;1.35;;
41759;SDS011;27438;53.396;-6.670;2022-08-19T10:36:24;4.00;;;1.00;;
41759;SDS011;27438;53.396;-6.670;2022-08-19T10:41:25;8.90;;;1.55;;
41759;SDS011;27438;53.396;-6.670;2022-08-19T10:43:54;9.18;;;1.73;;
41759;SDS011;27438;53.396;-6.670;2022-08-19T10:46:22;7.88;;;1.85;;
41759;SDS011;27438;53.396;-6.670;2022-08-19T10:48:49;6.82;;;1.50;;
41759;SDS011;27438;53.396;-6.670;2022-08-19T10:51:16;7.65;;;2.00;;
41759;SDS011;27438;53.396;-6.670;2022-08-19T10:54:08;6.78;;;1.35;;
41759;SDS011;27438;53.396;-6.670;2022-08-19T10:56:35;6.85;;;2.20;;
41759;SDS011;27438;53.396;-6.670;2022-08-19T10:59:16;8.18;;;2.03;;
41759;SDS011;27438;53.396;-6.670;2022-08-19T11:01:49;9.00;;;2.45;;
41759;SDS011;27438;53.396;-6.670;2022-08-19T11:04:16;6.47;;;1.35;;
41759;SDS011;27438;53.396;-6.670;2022-08-19T11:06:44;8.13;;;2.35;;
41759;SDS011;27438;53.396;-6.670;2022-08-19T11:09:13;10.82;;;2.13;;
41759;SDS011;27438;53.396;-6.670;2022-08-19T11:11:40;9.85;;;1.83;;
41759;SDS011;27438;53.396;-6.670;2022-08-19T11:14:08;8.30;;;1.83;;
41759;SDS011;27438;53.396;-6.670;2022-08-19T11:16:39;7.40;;;1.67;;
41759;SDS011;27438;53.396;-6.670;2022-08-19T11:19:06;11.27;;;2.13;;
41759;SDS011;27438;53.396;-6.670;2022-08-19T11:21:35;8.60;;;2.05;;
41759;SDS011;27438;53.396;-6.670;2022-08-19T11:24:04;7.00;;;2.42;;
41759;SDS011;27438;53.396;-6.670;2022-08-19T11:26:32;6.47;;;1.77;;
41759;SDS011;27438;53.396;-6.670;2022-08-19T11:29:00;6.13;;;1.92;;
41759;SDS011;27438;53.396;-6.670;2022-08-19T11:31:27;6.28;;;1.95;;
41759;SDS011;27438;53.396;-6.670;2022-08-19T11:33:59;4.60;;;2.22;;
41759;SDS011;27438;53.396;-6.670;2022-08-19T11:36:26;9.55;;;2.13;;
41759;SDS011;27438;53.396;-6.670;2022-08-19T11:38:53;7.75;;;2.50;;
41759;SDS011;27438;53.396;-6.670;2022-08-19T11:41:20;7.53;;;2.20;;
41759;SDS011;27438;53.396;-6.670;2022-08-19T11:43:48;10.05;;;2.22;;
41759;SDS011;27438;53.396;-6.670;2022-08-19T11:46:15;7.82;;;2.45;;
41759;SDS011;27438;53.396;-6.670;2022-08-19T11:48:41;5.47;;;1.98;;
41759;SDS011;27438;53.396;-6.670;2022-08-19T11:51:11;5.63;;;2.50;;
41759;SDS011;27438;53.396;-6.670;2022-08-19T11:53:39;7.78;;;2.10;;
41759;SDS011;27438;53.396;-6.670;2022-08-19T11:56:06;9.63;;;2.90;;
41759;SDS011;27438;53.396;-6.670;2022-08-19T11:58:33;8.95;;;2.50;;
41759;SDS011;27438;53.396;-6.670;2022-08-19T12:00:59;16.05;;;3.28;;
41759;SDS011;27438;53.396;-6.670;2022-08-19T12:03:25;7.60;;;2.47;;
41759;SDS011;27438;53.396;-6.670;2022-08-19T12:05:51;9.95;;;2.25;;
41759;SDS011;27438;53.396;-6.670;2022-08-19T12:08:17;7.28;;;2.25;;
41759;SDS011;27438;53.396;-6.670;2022-08-19T12:10:43;7.30;;;2.10;;
41759;SDS011;27438;53.396;-6.670;2022-08-19T12:13:10;6.57;;;2.33;;
41759;SDS011;27438;53.396;-6.670;2022-08-19T12:15:40;7.18;;;2.35;;
41759;SDS011;27438;53.396;-6.670;2022-08-19T12:18:07;7.25;;;2.15;;
41759;SDS011;27438;53.396;-6.670;2022-08-19T12:20:34;14.18;;;2.10;;
41759;SDS011;27438;53.396;-6.670;2022-08-19T12:23:01;6.35;;;2.00;;
41759;SDS011;27438;53.396;-6.670;2022-08-19T12:25:27;10.32;;;2.35;;
41759;SDS011;27438;53.396;-6.670;2022-08-19T12:27:52;7.78;;;2.03;;
41759;SDS011;27438;53.396;-6.670;2022-08-19T12:30:18;8.73;;;2.15;;
41759;SDS011;27438;53.396;-6.670;2022-08-19T12:32:44;4.75;;;1.90;;
41759;SDS011;27438;53.396;-6.670;2022-08-19T12:35:09;6.45;;;2.05;;
41759;SDS011;27438;53.396;-6.670;2022-08-19T12:37:36;10.27;;;2.42;;
41759;SDS011;27438;53.396;-6.670;2022-08-19T12:40:02;7.60;;;1.95;;
41759;SDS011;27438;53.396;-6.670;2022-08-19T12:42:29;5.80;;;2.28;;
41759;SDS011;27438;53.396;-6.670;2022-08-19T12:44:55;8.68;;;2.08;;
41759;SDS011;27438;53.396;-6.670;2022-08-19T12:47:21;6.78;;;1.90;;
41759;SDS011;27438;53.396;-6.670;2022-08-19T12:49:48;7.90;;;2.38;;
41759;SDS011;27438;53.396;-6.670;2022-08-19T12:52:14;4.13;;;2.22;;
41759;SDS011;27438;53.396;-6.670;2022-08-19T12:54:41;9.10;;;2.58;;
41759;SDS011;27438;53.396;-6.670;2022-08-19T12:57:08;6.43;;;3.20;;
41759;SDS011;27438;53.396;-6.670;2022-08-19T12:59:35;7.03;;;2.53;;
41759;SDS011;27438;53.396;-6.670;2022-08-19T13:02:05;7.78;;;2.95;;
41759;SDS011;27438;53.396;-6.670;2022-08-19T13:04:32;7.37;;;2.13;;
41759;SDS011;27438;53.396;-6.670;2022-08-19T13:07:05;8.55;;;1.95;;
41759;SDS011;27438;53.396;-6.670;2022-08-19T13:09:33;8.13;;;2.38;;
41759;SDS011;27438;53.396;-6.670;2022-08-19T13:11:59;8.30;;;2.40;;
41759;SDS011;27438;53.396;-6.670;2022-08-19T13:14:28;4.88;;;2.17;;
41759;SDS011;27438;53.396;-6.670;2022-08-19T13:16:55;7.20;;;2.78;;
41759;SDS011;27438;53.396;-6.670;2022-08-19T13:19:22;8.15;;;3.05;;
41759;SDS011;27438;53.396;-6.670;2022-08-19T13:21:49;5.95;;;2.58;;
41759;SDS011;27438;53.396;-6.670;2022-08-19T13:24:16;7.50;;;2.40;;
41759;SDS011;27438;53.396;-6.670;2022-08-19T13:26:42;6.55;;;2.17;;
41759;SDS011;27438;53.396;-6.670;2022-08-19T13:29:07;5.20;;;2.25;;
41759;SDS011;27438;53.396;-6.670;2022-08-19T13:31:52;7.97;;;1.90;;
41759;SDS011;27438;53.396;-6.670;2022-08-19T13:34:36;7.05;;;2.40;;
41759;SDS011;27438;53.396;-6.670;2022-08-19T13:37:02;6.78;;;2.53;;
41759;SDS011;27438;53.396;-6.670;2022-08-19T13:39:29;3.50;;;1.70;;
41759;SDS011;27438;53.396;-6.670;2022-08-19T13:41:57;2.78;;;1.73;;
41759;SDS011;27438;53.396;-6.670;2022-08-19T13:44:23;3.70;;;1.35;;
41759;SDS011;27438;53.396;-6.670;2022-08-19T13:46:49;4.20;;;1.55;;
41759;SDS011;27438;53.396;-6.670;2022-08-19T13:49:18;5.13;;;1.90;;
41759;SDS011;27438;53.396;-6.670;2022-08-19T13:51:45;3.78;;;1.45;;
41759;SDS011;27438;53.396;-6.670;2022-08-19T13:54:11;6.85;;;1.55;;
41759;SDS011;27438;53.396;-6.670;2022-08-19T13:56:44;3.55;;;1.50;;
41759;SDS011;27438;53.396;-6.670;2022-08-19T13:59:11;3.85;;;1.40;;
41759;SDS011;27438;53.396;-6.670;2022-08-19T14:01:37;3.53;;;1.60;;
41759;SDS011;27438;53.396;-6.670;2022-08-19T14:04:04;6.10;;;1.85;;
41759;SDS011;27438;53.396;-6.670;2022-08-19T14:06:30;5.03;;;1.70;;
41759;SDS011;27438;53.396;-6.670;2022-08-19T14:08:57;5.88;;;1.77;;
41759;SDS011;27438;53.396;-6.670;2022-08-19T14:11:22;6.85;;;2.30;;
41759;SDS011;27438;53.396;-6.670;2022-08-19T14:13:49;4.28;;;2.05;;
41759;SDS011;27438;53.396;-6.670;2022-08-19T14:16:15;5.88;;;1.63;;
41759;SDS011;27438;53.396;-6.670;2022-08-19T14:18:41;5.03;;;1.20;;
41759;SDS011;27438;53.396;-6.670;2022-08-19T14:21:08;3.75;;;1.58;;
41759;SDS011;27438;53.396;-6.670;2022-08-19T14:23:47;6.20;;;1.40;;
41759;SDS011;27438;53.396;-6.670;2022-08-19T14:26:14;8.48;;;1.85;;
41759;SDS011;27438;53.396;-6.670;2022-08-19T14:28:42;3.63;;;1.20;;
41759;SDS011;27438;53.396;-6.670;2022-08-19T14:31:12;4.30;;;1.52;;
41759;SDS011;27438;53.396;-6.670;2022-08-19T14:33:43;3.10;;;1.17;;
41759;SDS011;27438;53.396;-6.670;2022-08-19T14:36:10;4.25;;;1.50;;
41759;SDS011;27438;53.396;-6.670;2022-08-19T14:38:36;4.78;;;1.50;;
41759;SDS011;27438;53.396;-6.670;2022-08-19T14:41:07;3.83;;;1.30;;
41759;SDS011;27438;53.396;-6.670;2022-08-19T14:43:36;5.95;;;1.60;;
41759;SDS011;27438;53.396;-6.670;2022-08-19T14:46:01;2.63;;;1.35;;
41759;SDS011;27438;53.396;-6.670;2022-08-19T14:48:27;3.20;;;1.60;;
41759;SDS011;27438;53.396;-6.670;2022-08-19T14:50:53;4.53;;;2.38;;
41759;SDS011;27438;53.396;-6.670;2022-08-19T14:53:19;5.03;;;1.38;;